Time;durP1;ratioP1;P1;durP2;ratioP2;P2;SDS_P1;SDS_P2;PMS_P1;PMS_P2;Temp;Humidity;BMP_temperature;BMP_pressure;BME280_temperature;BME280_humidity;BME280_pressure;Samples;Min_cycle;Max_cycle;Signal;HPM_P1;HPM_P2
2023/10/01 00:01:21;;;;;;;15.27;6.27;;;;;10.30;95122.00;;;;7396159;19;20117;-75
2023/10/01 00:04:04;;;;;;;11.82;6.25;;;;;10.30;95122.00;;;;7393412;19;20153;-75
2023/10/01 00:06:43;;;;;;;15.40;5.53;;;;;10.40;95111.00;;;;7395122;19;20145;-76
2023/10/01 00:09:19;;;;;;;9.30;5.63;;;;;10.30;95117.00;;;;7396587;19;20149;-75
2023/10/01 00:11:47;;;;;;;16.30;5.97;;;;;10.30;95107.00;;;;7395761;19;21521;-74
2023/10/01 00:14:22;;;;;;;13.13;6.53;;;;;10.40;95115.00;;;;7396252;19;20136;-75
2023/10/01 00:16:56;;;;;;;13.13;5.68;;;;;10.40;95120.00;;;;7394474;19;20172;-76
2023/10/01 00:19:33;;;;;;;15.13;5.80;;;;;10.30;95130.00;;;;7391632;19;20150;-75
2023/10/01 00:22:09;;;;;;;13.30;5.57;;;;;10.20;95124.00;;;;7394058;19;20144;-75
2023/10/01 00:24:44;;;;;;;10.93;5.87;;;;;10.10;95117.00;;;;7396774;19;20149;-77
2023/10/01 00:27:19;;;;;;;9.43;5.30;;;;;10.10;95127.00;;;;7394583;19;20148;-78
2023/10/01 00:29:54;;;;;;;10.07;5.13;;;;;10.10;95121.00;;;;7394544;19;20622;-78
2023/10/01 00:32:22;;;;;;;15.73;5.77;;;;;10.10;95119.00;;;;7396561;19;20482;-79
2023/10/01 00:34:57;;;;;;;10.77;5.53;;;;;10.10;95116.00;;;;7394129;19;20204;-77
2023/10/01 00:37:34;;;;;;;14.50;5.83;;;;;10.20;95113.00;;;;7394195;19;20155;-79
2023/10/01 00:40:13;;;;;;;13.05;5.80;;;;;10.20;95113.00;;;;7394280;19;20148;-78
2023/10/01 00:42:42;;;;;;;16.10;6.13;;;;;10.20;95114.00;;;;7397270;19;20133;-78
2023/10/01 00:45:17;;;;;;;13.50;6.20;;;;;10.20;95115.00;;;;7394502;19;20145;-79
2023/10/01 00:47:52;;;;;;;13.87;5.63;;;;;10.20;95113.00;;;;7393331;19;20167;-77
2023/10/01 00:50:21;;;;;;;13.30;5.93;;;;;10.10;95115.00;;;;7394285;19;20576;-78
2023/10/01 00:52:58;;;;;;;12.63;6.00;;;;;10.10;95122.00;;;;7399589;19;20607;-77
2023/10/01 00:55:33;;;;;;;11.18;5.75;;;;;10.00;95117.00;;;;7399062;19;20140;-78
2023/10/01 00:58:11;;;;;;;14.95;6.20;;;;;10.10;95108.00;;;;7402172;19;20147;-79
2023/10/01 01:00:49;;;;;;;13.77;6.17;;;;;10.00;95100.00;;;;7401295;19;20137;-79
2023/10/01 01:03:24;;;;;;;9.68;5.07;;;;;10.00;95109.00;;;;7398647;19;20148;-77
2023/10/01 01:06:13;;;;;;;10.75;5.57;;;;;10.10;95105.00;;;;7399735;19;20168;-77
2023/10/01 01:08:52;;;;;;;15.37;5.70;;;;;10.10;95102.00;;;;7403668;19;20127;-79
2023/10/01 01:11:29;;;;;;;10.43;5.70;;;;;10.10;95095.00;;;;7401558;19;20650;-78
2023/10/01 01:14:01;;;;;;;11.40;6.07;;;;;10.20;95100.00;;;;7399892;19;20148;-79
2023/10/01 01:16:35;;;;;;;11.40;5.83;;;;;10.20;95102.00;;;;7400982;19;20120;-77
2023/10/01 01:19:05;;;;;;;13.10;6.27;;;;;10.20;95095.00;;;;7397936;19;20144;-78
2023/10/01 01:21:42;;;;;;;9.90;5.18;;;;;10.20;95096.00;;;;7401974;19;20125;-78
2023/10/01 01:24:16;;;;;;;16.25;5.95;;;;;10.10;95094.00;;;;7403415;19;20154;-79
2023/10/01 01:26:51;;;;;;;11.40;6.30;;;;;10.20;95089.00;;;;7402331;19;20147;-78
2023/10/01 01:29:29;;;;;;;13.60;6.23;;;;;10.20;95084.00;;;;7400410;19;20149;-77
2023/10/01 01:32:13;;;;;;;12.93;6.57;;;;;10.30;95084.00;;;;7401913;19;20151;-77
2023/10/01 01:34:48;;;;;;;12.95;6.32;;;;;10.30;95088.00;;;;7399029;19;20143;-75
2023/10/01 01:40:24;;;;;;;11.15;6.20;;;;;10.50;95094.00;;;;7399061;19;20169;-76
2023/10/01 01:43:03;;;;;;;10.80;5.80;;;;;10.40;95085.00;;;;7400043;19;20137;-76
2023/10/01 01:45:43;;;;;;;13.73;5.75;;;;;10.40;95088.00;;;;7401211;19;20607;-76
2023/10/01 01:48:31;;;;;;;14.98;6.45;;;;;10.50;95087.00;;;;7400289;19;20143;-76
2023/10/01 01:51:08;;;;;;;12.60;6.50;;;;;10.40;95088.00;;;;7398941;19;20129;-76
2023/10/01 01:53:41;;;;;;;12.33;5.97;;;;;10.30;95094.00;;;;7399286;19;20145;-76
2023/10/01 01:56:18;;;;;;;11.95;5.85;;;;;10.20;95085.00;;;;7400705;19;20152;-75
2023/10/01 01:58:47;;;;;;;15.13;6.17;;;;;10.20;95076.00;;;;7398005;19;20464;-76
2023/10/01 02:01:23;;;;;;;14.50;6.43;;;;;10.30;95080.00;;;;7400129;19;20604;-75
2023/10/01 02:03:57;;;;;;;13.30;6.00;;;;;10.30;95081.00;;;;7399160;19;20204;-75
2023/10/01 02:06:38;;;;;;;16.03;6.70;;;;;10.20;95072.00;;;;7396680;19;20144;-75
2023/10/01 02:09:14;;;;;;;15.90;6.15;;;;;10.30;95072.00;;;;7399504;19;20486;-75
2023/10/01 02:11:57;;;;;;;12.93;6.47;;;;;10.10;95075.00;;;;7400190;19;20488;-75
2023/10/01 02:14:35;;;;;;;16.07;6.30;;;;;10.10;95071.00;;;;7398186;19;20477;-77
2023/10/01 02:17:13;;;;;;;15.50;5.80;;;;;10.10;95079.00;;;;7399611;19;20137;-76
2023/10/01 02:19:49;;;;;;;13.30;6.33;;;;;10.20;95071.00;;;;7400653;19;20715;-75
2023/10/01 02:22:17;;;;;;;12.27;6.13;;;;;10.00;95081.00;;;;7400416;19;20148;-75
2023/10/01 02:24:54;;;;;;;11.55;5.45;;;;;10.10;95067.00;;;;7398291;19;20117;-75
2023/10/01 02:27:29;;;;;;;11.03;6.47;;;;;10.20;95068.00;;;;7398067;19;20224;-76
2023/10/01 02:30:14;;;;;;;15.83;6.17;;;;;10.30;95064.00;;;;7399274;19;20157;-75
2023/10/01 02:35:35;;;;;;;13.15;5.93;;;;;10.30;95059.00;;;;7396298;19;20141;-75
2023/10/01 02:38:57;;;;;;;13.30;6.30;;;;;10.20;95058.00;;;;7398373;19;20152;-75
2023/10/01 02:41:02;;;;;;;15.90;6.10;;;;;10.10;95056.00;;;;7396056;19;20137;-76
2023/10/01 02:43:41;;;;;;;12.70;6.37;;;;;10.20;95064.00;;;;7398408;19;20135;-75
2023/10/01 02:46:12;;;;;;;11.97;6.23;;;;;10.20;95052.00;;;;7397587;19;20530;-74
2023/10/01 02:48:47;;;;;;;12.63;6.57;;;;;10.40;95049.00;;;;7399348;19;20504;-75
2023/10/01 02:51:16;;;;;;;11.37;6.27;;;;;10.40;95051.00;;;;7399347;19;20140;-74
2023/10/01 02:54:04;;;;;;;11.63;6.07;;;;;10.30;95046.00;;;;7398619;19;20606;-75
2023/10/01 02:56:52;;;;;;;13.30;5.95;;;;;10.50;95050.00;;;;7395449;19;20148;-75
2023/10/01 02:59:29;;;;;;;12.93;6.27;;;;;10.60;95048.00;;;;7397658;19;20611;-76
2023/10/01 03:02:08;;;;;;;12.90;6.70;;;;;10.40;95049.00;;;;7397376;19;20232;-74
2023/10/01 03:04:51;;;;;;;17.33;5.90;;;;;10.40;95055.00;;;;7396811;19;20152;-74
2023/10/01 03:07:32;;;;;;;12.20;6.10;;;;;10.60;95047.00;;;;7397835;19;20132;-74
2023/10/01 03:10:31;;;;;;;12.35;5.65;;;;;10.70;95051.00;;;;7397101;19;20145;-74
2023/10/01 03:13:14;;;;;;;12.02;6.03;;;;;10.60;95039.00;;;;7398457;19;20149;-74
2023/10/01 03:18:44;;;;;;;15.82;5.60;;;;;10.60;95040.00;;;;7396969;19;20208;-74
2023/10/01 03:21:19;;;;;;;12.45;5.88;;;;;10.50;95035.00;;;;7396804;19;20580;-73
2023/10/01 03:23:54;;;;;;;11.60;6.07;;;;;10.50;95030.00;;;;7398410;19;20140;-75
2023/10/01 03:26:33;;;;;;;13.23;6.93;;;;;10.80;95043.00;;;;7399669;19;20139;-75
2023/10/01 03:29:34;;;;;;;11.95;6.05;;;;;10.80;95046.00;;;;7398153;19;20145;-73
2023/10/01 03:32:27;;;;;;;12.88;5.80;;;;;10.70;95038.00;;;;7397516;19;20132;-74
2023/10/01 03:35:07;;;;;;;12.17;5.70;;;;;10.70;95042.00;;;;7396479;19;20872;-73
2023/10/01 03:37:40;;;;;;;15.70;6.03;;;;;10.60;95039.00;;;;7396560;19;20152;-73
2023/10/01 03:40:18;;;;;;;11.10;6.07;;;;;10.50;95047.00;;;;7398420;19;20621;-73
2023/10/01 03:42:53;;;;;;;13.40;6.88;;;;;11.00;95036.00;;;;7397719;19;20129;-74
2023/10/01 03:45:54;;;;;;;13.25;5.78;;;;;10.80;95030.00;;;;7394492;19;20147;-74
2023/10/01 03:48:23;;;;;;;10.20;5.72;;;;;10.70;95040.00;;;;7394860;19;20171;-75
2023/10/01 03:50:58;;;;;;;14.55;6.88;;;;;10.90;95042.00;;;;7396213;19;20139;-73
2023/10/01 03:53:26;;;;;;;14.60;7.20;;;;;10.90;95043.00;;;;7395542;19;20133;-74
2023/10/01 03:56:07;;;;;;;13.97;6.20;;;;;10.90;95038.00;;;;7393830;19;20148;-78
2023/10/01 03:58:36;;;;;;;12.30;6.28;;;;;11.00;95042.00;;;;7395893;19;20157;-78
2023/10/01 04:01:26;;;;;;;10.17;5.37;;;;;11.10;95041.00;;;;7397400;19;20136;-77
2023/10/01 04:04:01;;;;;;;11.43;6.15;;;;;11.00;95045.00;;;;7395399;19;20153;-79
2023/10/01 04:06:44;;;;;;;11.65;6.20;;;;;11.00;95044.00;;;;7394368;19;20144;-79
2023/10/01 04:09:26;;;;;;;13.85;6.38;;;;;10.90;95042.00;;;;7397314;19;20157;-77
2023/10/01 04:15:09;;;;;;;12.05;5.57;;;;;11.00;95032.00;;;;7392089;19;20145;-79
2023/10/01 04:23:33;;;;;;;9.32;5.68;;;;;10.90;95020.00;;;;7395750;19;20132;-77
2023/10/01 04:26:13;;;;;;;11.70;5.85;;;;;10.70;95034.00;;;;7391993;19;20587;-79
2023/10/01 04:28:58;;;;;;;10.60;5.35;;;;;10.70;95026.00;;;;7394485;19;20224;-79
2023/10/01 04:31:52;;;;;;;11.45;6.00;;;;;10.80;95025.00;;;;7395453;19;20120;-78
2023/10/01 04:34:27;;;;;;;12.82;5.10;;;;;10.80;95024.00;;;;7393845;19;20169;-78
2023/10/01 04:36:55;;;;;;;8.70;5.60;;;;;10.80;95032.00;;;;7392985;19;20509;-78
2023/10/01 04:39:30;;;;;;;14.63;5.45;;;;;10.80;95018.00;;;;7396080;19;20492;-78
2023/10/01 04:42:04;;;;;;;12.57;5.60;;;;;10.90;95014.00;;;;7393069;19;20144;-79
2023/10/01 04:44:35;;;;;;;19.60;6.55;;;;;11.00;95018.00;;;;7396871;19;20592;-79
2023/10/01 04:47:30;;;;;;;12.43;5.70;;;;;10.90;95011.00;;;;7395651;19;20132;-79
2023/10/01 04:49:56;;;;;;;11.25;5.95;;;;;11.10;95008.00;;;;7391274;19;20148;-78
2023/10/01 04:52:32;;;;;;;10.02;5.63;;;;;11.10;95010.00;;;;7393330;19;20136;-78
2023/10/01 04:55:09;;;;;;;10.73;5.60;;;;;11.30;95017.00;;;;7393776;19;20161;-79
2023/10/01 04:58:04;;;;;;;9.05;5.10;;;;;11.20;95025.00;;;;7392395;19;20189;-79
2023/10/01 05:00:34;;;;;;;11.30;5.85;;;;;11.20;95030.00;;;;7391703;19;20639;-78
2023/10/01 05:03:15;;;;;;;14.13;6.68;;;;;11.10;95029.00;;;;7394886;19;20149;-78
2023/10/01 05:05:44;;;;;;;16.90;6.60;;;;;11.20;95037.00;;;;7378198;19;20620;-74
2023/10/01 05:08:22;;;;;;;10.32;4.82;;;;;11.00;95035.00;;;;7381675;19;20160;-77
2023/10/01 05:10:56;;;;;;;25.73;5.97;;;;;11.10;95038.00;;;;7377201;19;20483;-75
2023/10/01 05:13:34;;;;;;;20.58;6.50;;;;;11.30;95035.00;;;;7381097;19;20659;-74
2023/10/01 05:16:06;;;;;;;10.38;4.85;;;;;11.30;95039.00;;;;7385904;19;20193;-73
2023/10/01 05:18:43;;;;;;;12.38;5.28;;;;;11.30;95034.00;;;;7384766;19;20546;-74
2023/10/01 05:21:21;;;;;;;13.07;5.38;;;;;11.50;95041.00;;;;7385418;19;20169;-73
2023/10/01 05:23:59;;;;;;;13.50;5.57;;;;;11.20;95047.00;;;;7384769;19;20140;-73
2023/10/01 05:26:35;;;;;;;13.25;5.15;;;;;11.30;95043.00;;;;7383627;19;20211;-74
2023/10/01 05:29:06;;;;;;;14.73;6.18;;;;;11.40;95049.00;;;;7383301;19;20847;-76
2023/10/01 05:31:43;;;;;;;15.55;6.20;;;;;11.40;95036.00;;;;7383611;19;20133;-74
2023/10/01 05:34:13;;;;;;;14.13;5.93;;;;;11.40;95051.00;;;;7384470;19;20555;-73
2023/10/01 05:36:49;;;;;;;12.15;5.97;;;;;11.50;95049.00;;;;7385472;19;20504;-74
2023/10/01 05:39:17;;;;;;;11.75;5.82;;;;;11.50;95053.00;;;;7390693;19;20262;-75
2023/10/01 05:41:52;;;;;;;13.27;5.97;;;;;11.60;95058.00;;;;7386607;19;20491;-73
2023/10/01 05:44:21;;;;;;;12.85;6.10;;;;;11.60;95053.00;;;;7384103;19;20137;-74
2023/10/01 05:46:56;;;;;;;11.70;6.30;;;;;11.70;95055.00;;;;7391435;19;20168;-73
2023/10/01 05:49:31;;;;;;;13.65;5.93;;;;;11.80;95055.00;;;;7390164;19;20646;-74
2023/10/01 05:52:07;;;;;;;15.32;5.65;;;;;12.00;95061.00;;;;7387264;19;20211;-73
2023/10/01 05:54:52;;;;;;;13.93;6.30;;;;;12.10;95063.00;;;;7388967;19;20224;-72
2023/10/01 05:57:27;;;;;;;17.48;6.10;;;;;12.10;95069.00;;;;7391228;19;20541;-73
2023/10/01 06:00:00;;;;;;;14.98;6.68;;;;;12.00;95073.00;;;;7386677;19;20129;-72
2023/10/01 06:02:47;;;;;;;11.48;5.70;;;;;12.10;95075.00;;;;7387140;19;20281;-74
2023/10/01 06:05:25;;;;;;;13.60;5.88;;;;;12.40;95076.00;;;;7386421;19;20149;-75
2023/10/01 06:08:17;;;;;;;12.13;5.65;;;;;12.50;95073.00;;;;7388535;19;20132;-73
2023/10/01 06:10:59;;;;;;;12.55;5.30;;;;;12.80;95080.00;;;;7380218;19;20172;-74
2023/10/01 06:13:48;;;;;;;13.05;5.60;;;;;13.00;95087.00;;;;7379280;19;20148;-74
2023/10/01 06:16:23;;;;;;;12.07;5.72;;;;;13.00;95085.00;;;;7386080;19;20969;-76
2023/10/01 06:18:58;;;;;;;10.90;5.85;;;;;13.10;95075.00;;;;7384121;19;20200;-76
2023/10/01 06:21:33;;;;;;;16.83;5.95;;;;;13.10;95068.00;;;;7388179;19;22962;-79
2023/10/01 06:24:10;;;;;;;17.77;6.25;;;;;13.00;95065.00;;;;7386156;19;20515;-77
2023/10/01 06:26:48;;;;;;;12.73;5.85;;;;;13.10;95072.00;;;;7386805;19;20200;-79
2023/10/01 06:29:23;;;;;;;13.15;6.20;;;;;13.40;95071.00;;;;7385794;19;20600;-79
2023/10/01 06:32:04;;;;;;;11.98;6.03;;;;;13.50;95069.00;;;;7386172;19;20160;-78
2023/10/01 06:34:39;;;;;;;12.50;5.63;;;;;13.70;95076.00;;;;7383068;19;20135;-77
2023/10/01 06:37:15;;;;;;;11.45;5.43;;;;;13.90;95067.00;;;;7388968;19;20121;-79
2023/10/01 06:39:43;;;;;;;17.45;6.53;;;;;14.00;95066.00;;;;7385240;19;20129;-78
2023/10/01 06:42:18;;;;;;;11.57;5.90;;;;;14.10;95064.00;;;;7383634;19;20137;-77
2023/10/01 06:44:58;;;;;;;16.15;5.82;;;;;14.30;95067.00;;;;7382258;19;20145;-77
2023/10/01 06:47:33;;;;;;;13.63;6.70;;;;;14.50;95066.00;;;;7378795;19;20135;-78
2023/10/01 06:50:14;;;;;;;13.93;6.13;;;;;14.70;95072.00;;;;7380921;19;20152;-78
2023/10/01 06:52:51;;;;;;;14.10;6.63;;;;;14.80;95083.00;;;;7387113;19;20132;-77
2023/10/01 06:55:28;;;;;;;14.13;6.68;;;;;15.10;95075.00;;;;7386141;19;20144;-78
2023/10/01 06:58:07;;;;;;;14.57;7.05;;;;;15.30;95076.00;;;;7386088;19;20129;-79
2023/10/01 07:00:42;;;;;;;11.90;6.53;;;;;15.40;95081.00;;;;7385059;19;20139;-77
2023/10/01 07:03:21;;;;;;;13.70;7.32;;;;;15.60;95080.00;;;;7382456;19;20172;-76
2023/10/01 07:06:04;;;;;;;15.52;6.72;;;;;15.90;95078.00;;;;7383438;19;20531;-78
2023/10/01 07:08:45;;;;;;;23.08;7.53;;;;;16.10;95079.00;;;;7383351;19;20595;-77
2023/10/01 07:11:21;;;;;;;13.85;6.38;;;;;16.30;95080.00;;;;7383181;19;20587;-79
2023/10/01 07:13:56;;;;;;;15.30;7.07;;;;;16.40;95083.00;;;;7384110;19;20145;-80
2023/10/01 07:16:39;;;;;;;16.08;6.68;;;;;16.50;95086.00;;;;7385857;19;20137;-75
2023/10/01 07:19:20;;;;;;;12.43;6.03;;;;;16.80;95087.00;;;;7383191;19;20141;-79
2023/10/01 07:21:56;;;;;;;13.77;7.07;;;;;16.80;95086.00;;;;7384002;19;20168;-80
2023/10/01 07:24:33;;;;;;;12.15;6.63;;;;;16.90;95086.00;;;;7385329;19;20140;-79
2023/10/01 07:27:03;;;;;;;16.38;7.05;;;;;17.00;95092.00;;;;7382377;19;20159;-73
2023/10/01 07:29:42;;;;;;;12.00;5.90;;;;;17.20;95086.00;;;;7384733;19;20156;-74
2023/10/01 07:32:13;;;;;;;12.82;6.60;;;;;17.40;95094.00;;;;7386226;19;20156;-73
2023/10/01 07:34:55;;;;;;;13.15;6.45;;;;;17.70;95098.00;;;;7385500;19;20169;-74
2023/10/01 07:37:32;;;;;;;11.77;5.95;;;;;17.80;95101.00;;;;7383952;19;20568;-72
2023/10/01 07:40:13;;;;;;;14.00;7.10;;;;;17.90;95093.00;;;;7384650;19;20168;-74
2023/10/01 07:42:47;;;;;;;12.85;6.03;;;;;17.80;95097.00;;;;7385191;19;20169;-75
2023/10/01 07:45:23;;;;;;;15.88;7.00;;;;;18.10;95100.00;;;;7384531;19;20152;-73
2023/10/01 07:47:51;;;;;;;13.15;6.32;;;;;17.90;95095.00;;;;7385709;19;21035;-73
2023/10/01 07:50:27;;;;;;;11.15;6.30;;;;;18.00;95102.00;;;;7384919;19;20172;-77
2023/10/01 07:53:04;;;;;;;14.38;6.63;;;;;18.30;95099.00;;;;7383171;19;20192;-73
2023/10/01 07:55:37;;;;;;;13.45;6.60;;;;;18.30;95113.00;;;;7382858;19;20152;-73
2023/10/01 07:58:44;;;;;;;11.38;6.47;;;;;18.30;95114.00;;;;7386462;19;20133;-73
2023/10/01 08:01:37;;;;;;;13.85;6.82;;;;;18.70;95107.00;;;;7384436;19;20192;-73
2023/10/01 08:04:08;;;;;;;13.07;6.55;;;;;18.80;95119.00;;;;7383616;19;20149;-73
2023/10/01 08:06:49;;;;;;;11.95;6.20;;;;;19.20;95123.00;;;;7381019;19;20291;-73
2023/10/01 08:09:24;;;;;;;14.50;6.85;;;;;18.90;95118.00;;;;7382025;19;20188;-73
2023/10/01 08:12:06;;;;;;;13.60;6.22;;;;;19.20;95126.00;;;;7383238;19;20152;-74
2023/10/01 08:15:06;;;;;;;15.45;6.35;;;;;19.20;95120.00;;;;7385129;19;20152;-73
2023/10/01 08:17:41;;;;;;;14.45;6.65;;;;;18.80;95115.00;;;;7384939;19;20137;-72
2023/10/01 08:20:18;;;;;;;10.73;6.72;;;;;19.20;95116.00;;;;7384093;19;20148;-72
2023/10/01 08:23:12;;;;;;;14.25;7.05;;;;;19.30;95122.00;;;;7383309;19;20169;-73
2023/10/01 08:25:51;;;;;;;11.63;6.32;;;;;19.40;95123.00;;;;7384903;19;20163;-73
2023/10/01 08:31:02;;;;;;;12.95;6.20;;;;;19.60;95126.00;;;;7384678;19;20128;-76
2023/10/01 08:33:34;;;;;;;11.85;6.05;;;;;19.80;95118.00;;;;7382951;19;20148;-74
2023/10/01 08:36:14;;;;;;;12.63;6.05;;;;;20.20;95113.00;;;;7383504;19;20140;-74
2023/10/01 08:39:19;;;;;;;12.32;6.38;;;;;20.30;95120.00;;;;7383244;19;20562;-72
2023/10/01 08:41:50;;;;;;;11.45;6.32;;;;;20.10;95116.00;;;;7382164;19;20145;-72
2023/10/01 08:44:30;;;;;;;11.60;5.97;;;;;20.60;95122.00;;;;7382752;19;20145;-75
2023/10/01 08:47:21;;;;;;;11.85;6.07;;;;;20.50;95110.00;;;;7383220;19;20510;-73
2023/10/01 08:49:51;;;;;;;12.45;6.30;;;;;20.40;95122.00;;;;7380031;19;20153;-72
2023/10/01 08:52:26;;;;;;;10.43;6.45;;;;;20.40;95121.00;;;;7381713;19;20168;-74
2023/10/01 08:54:54;;;;;;;11.52;6.28;;;;;20.50;95129.00;;;;7382020;19;20200;-72
2023/10/01 08:57:36;;;;;;;13.85;7.13;;;;;20.60;95129.00;;;;7381291;19;20624;-72
2023/10/01 09:00:17;;;;;;;10.07;6.18;;;;;20.80;95126.00;;;;7381524;19;20146;-73
2023/10/01 09:02:53;;;;;;;25.17;6.85;;;;;21.10;95126.00;;;;7382213;19;20693;-74
2023/10/01 09:05:46;;;;;;;12.23;6.50;;;;;20.60;95129.00;;;;7381965;19;20149;-75
2023/10/01 09:08:42;;;;;;;14.95;7.45;;;;;20.70;95123.00;;;;7383702;19;20157;-73
2023/10/01 09:11:19;;;;;;;14.50;6.57;;;;;20.80;95124.00;;;;7383346;19;20129;-77
2023/10/01 09:17:00;;;;;;;11.00;6.20;;;;;20.50;95120.00;;;;7388159;19;20147;-74
2023/10/01 09:19:50;;;;;;;11.18;5.50;;;;;20.10;95124.00;;;;7389243;19;20144;-73
2023/10/01 09:22:59;;;;;;;11.50;6.43;;;;;20.90;95126.00;;;;7389683;19;20199;-75
2023/10/01 09:25:25;;;;;;;15.30;6.45;;;;;21.10;95132.00;;;;7384415;19;20155;-72
2023/10/01 09:28:19;;;;;;;10.80;6.10;;;;;21.40;95130.00;;;;7388497;19;20145;-74
2023/10/01 09:31:26;;;;;;;13.40;6.30;;;;;21.50;95136.00;;;;7387129;19;20136;-72
2023/10/01 09:34:29;;;;;;;10.43;6.22;;;;;21.50;95131.00;;;;7387420;19;20128;-72
2023/10/01 09:37:11;;;;;;;12.20;6.40;;;;;21.50;95120.00;;;;7389385;19;20143;-73
2023/10/01 09:39:46;;;;;;;12.15;6.65;;;;;21.80;95119.00;;;;7386377;19;20513;-73
2023/10/01 09:42:24;;;;;;;10.95;6.35;;;;;21.80;95112.00;;;;7388800;19;20608;-72
2023/10/01 09:45:24;;;;;;;13.00;6.43;;;;;22.00;95117.00;;;;7387146;19;20184;-74
2023/10/01 09:48:09;;;;;;;11.80;6.18;;;;;22.00;95125.00;;;;7389338;19;20140;-79
2023/10/01 09:50:43;;;;;;;11.55;6.78;;;;;22.10;95114.00;;;;7388929;19;20600;-77
2023/10/01 09:53:13;;;;;;;11.45;6.13;;;;;22.30;95108.00;;;;7388377;19;20483;-77
2023/10/01 09:55:55;;;;;;;10.43;5.90;;;;;22.40;95107.00;;;;7386043;19;20148;-78
2023/10/01 09:58:25;;;;;;;12.23;6.35;;;;;22.40;95108.00;;;;7388259;19;20576;-79
2023/10/01 10:01:01;;;;;;;12.32;6.25;;;;;22.70;95112.00;;;;7385677;19;20140;-76
2023/10/01 10:03:36;;;;;;;11.10;6.18;;;;;22.20;95104.00;;;;7388037;19;20215;-77
2023/10/01 10:06:27;;;;;;;14.68;6.20;;;;;22.30;95106.00;;;;7386000;19;20190;-77
2023/10/01 10:09:03;;;;;;;11.32;5.88;;;;;22.10;95113.00;;;;7388751;19;20208;-77
2023/10/01 10:11:45;;;;;;;13.70;6.53;;;;;22.30;95113.00;;;;7387485;19;20141;-76
2023/10/01 10:14:25;;;;;;;11.20;6.53;;;;;22.80;95107.00;;;;7386530;19;20153;-78
2023/10/01 10:17:07;;;;;;;9.68;5.80;;;;;22.40;95104.00;;;;7386923;19;20695;-78
2023/10/01 10:23:16;;;;;;;13.07;6.45;;;;;22.80;95095.00;;;;7387370;19;20125;-78
2023/10/01 10:25:45;;;;;;;15.75;6.28;;;;;23.20;95091.00;;;;7387739;19;20620;-76
2023/10/01 10:28:25;;;;;;;13.13;6.85;;;;;23.20;95096.00;;;;7385707;19;20628;-77
2023/10/01 10:31:33;;;;;;;12.10;6.88;;;;;23.30;95091.00;;;;7387765;19;20640;-78
2023/10/01 10:34:26;;;;;;;11.43;6.40;;;;;22.90;95088.00;;;;7384896;19;20471;-78
2023/10/01 10:36:55;;;;;;;13.52;6.72;;;;;22.70;95096.00;;;;7387270;19;20140;-78
2023/10/01 10:39:47;;;;;;;10.48;6.20;;;;;22.90;95090.00;;;;7385985;19;20564;-77
2023/10/01 10:42:28;;;;;;;11.95;6.80;;;;;23.60;95082.00;;;;7385466;19;20145;-78
2023/10/01 10:45:27;;;;;;;11.18;6.35;;;;;24.10;95084.00;;;;7385658;19;20137;-77
2023/10/01 10:48:13;;;;;;;10.73;5.82;;;;;24.10;95073.00;;;;7386309;19;20136;-78
2023/10/01 10:50:58;;;;;;;14.68;7.32;;;;;24.10;95075.00;;;;7383706;19;20160;-77
2023/10/01 10:53:46;;;;;;;12.18;6.65;;;;;24.10;95079.00;;;;7385392;19;20145;-77
2023/10/01 10:56:35;;;;;;;15.40;7.05;;;;;24.10;95081.00;;;;7387235;19;20610;-78
2023/10/01 10:59:15;;;;;;;12.60;6.88;;;;;24.60;95082.00;;;;7387261;19;20151;-78
2023/10/01 11:02:02;;;;;;;14.73;7.80;;;;;24.50;95080.00;;;;7386028;19;20624;-77
2023/10/01 11:04:41;;;;;;;17.20;7.97;;;;;24.30;95077.00;;;;7383539;19;20509;-76
2023/10/01 11:07:35;;;;;;;13.27;7.63;;;;;24.50;95084.00;;;;7385201;19;20204;-74
2023/10/01 11:10:04;;;;;;;14.55;7.78;;;;;24.80;95083.00;;;;7388184;19;20132;-74
2023/10/01 11:12:54;;;;;;;14.52;7.43;;;;;25.40;95071.00;;;;7384613;19;20152;-72
2023/10/01 11:15:38;;;;;;;15.82;7.65;;;;;25.70;95080.00;;;;7382909;19;20521;-74
2023/10/01 11:18:13;;;;;;;12.68;7.57;;;;;25.90;95071.00;;;;7384567;19;20159;-75
2023/10/01 11:20:45;;;;;;;13.48;7.20;;;;;26.70;95076.00;;;;7385853;19;20188;-74
2023/10/01 11:23:19;;;;;;;15.90;7.55;;;;;26.60;95074.00;;;;7384834;19;20149;-75
2023/10/01 11:25:47;;;;;;;12.63;8.07;;;;;27.00;95081.00;;;;7385741;19;20129;-74
2023/10/01 11:28:22;;;;;;;12.05;7.32;;;;;28.00;95072.00;;;;7386027;19;20144;-76
2023/10/01 11:30:57;;;;;;;14.23;8.18;;;;;28.00;95073.00;;;;7386877;19;20149;-75
2023/10/01 11:33:32;;;;;;;14.60;8.30;;;;;27.70;95062.00;;;;7384067;19;20558;-74
2023/10/01 11:36:06;;;;;;;13.35;8.00;;;;;27.50;95067.00;;;;7384928;19;20165;-74
2023/10/01 11:38:45;;;;;;;13.77;7.88;;;;;28.70;95063.00;;;;7385281;19;20136;-73
2023/10/01 11:41:13;;;;;;;15.45;8.32;;;;;28.60;95053.00;;;;7383549;19;20153;-76
2023/10/01 11:43:58;;;;;;;13.00;7.45;;;;;29.00;95048.00;;;;7385528;19;20513;-76
2023/10/01 11:49:37;;;;;;;15.25;7.82;;;;;29.10;95042.00;;;;7388105;19;20140;-75
2023/10/01 11:52:21;;;;;;;13.25;7.95;;;;;28.80;95039.00;;;;7384295;19;20129;-75
2023/10/01 11:54:57;;;;;;;12.68;7.57;;;;;28.40;95043.00;;;;7386027;19;20128;-76
2023/10/01 11:57:35;;;;;;;15.45;8.45;;;;;28.20;95036.00;;;;7385857;19;20535;-74
2023/10/01 12:00:18;;;;;;;11.63;7.22;;;;;27.90;95036.00;;;;7381263;19;20216;-76
2023/10/01 12:02:58;;;;;;;12.52;8.25;;;;;28.30;95038.00;;;;7382655;19;20176;-74
2023/10/01 12:05:41;;;;;;;13.82;8.30;;;;;28.00;95031.00;;;;7385399;19;20463;-73
2023/10/01 12:08:47;;;;;;;15.00;8.18;;;;;27.80;95034.00;;;;7381624;19;20141;-74
2023/10/01 12:11:28;;;;;;;13.10;8.02;;;;;27.70;95029.00;;;;7381318;19;20627;-77
2023/10/01 12:14:05;;;;;;;15.15;7.70;;;;;27.10;95021.00;;;;7381564;19;20208;-75
2023/10/01 12:16:35;;;;;;;13.40;8.38;;;;;27.90;95027.00;;;;7378151;19;20604;-74
2023/10/01 12:19:24;;;;;;;14.35;8.55;;;;;28.00;95019.00;;;;7379486;19;20687;-77
2023/10/01 12:22:09;;;;;;;13.88;8.07;;;;;27.00;95021.00;;;;7380515;19;20159;-76
2023/10/01 12:24:39;;;;;;;15.05;9.05;;;;;28.20;95018.00;;;;7380263;19;20133;-75
2023/10/01 12:27:37;;;;;;;12.90;7.80;;;;;29.20;95019.00;;;;7382322;19;20192;-78
2023/10/01 12:30:29;;;;;;;13.18;7.70;;;;;28.70;95028.00;;;;7382045;19;20129;-79
2023/10/01 12:33:02;;;;;;;13.25;8.23;;;;;29.30;95016.00;;;;7381054;19;20492;-81
2023/10/01 12:35:37;;;;;;;14.27;8.70;;;;;29.60;95017.00;;;;7378051;19;20188;-78
2023/10/01 12:38:05;;;;;;;13.30;8.10;;;;;29.30;95014.00;;;;7382183;19;20129;-79
2023/10/01 12:40:40;;;;;;;13.68;8.70;;;;;29.40;95007.00;;;;7377512;19;20147;-80
2023/10/01 12:46:10;;;;;;;12.02;8.30;;;;;30.90;95015.00;;;;7380089;19;20157;-79
2023/10/01 12:48:44;;;;;;;12.45;8.95;;;;;30.30;95008.00;;;;7384532;19;20475;-80
2023/10/01 12:51:19;;;;;;;14.88;9.35;;;;;30.50;95000.00;;;;7387870;19;20156;-79
2023/10/01 12:53:49;;;;;;;12.07;8.02;;;;;31.00;95007.00;;;;7386910;19;20144;-79
2023/10/01 12:56:44;;;;;;;12.23;8.23;;;;;30.50;95005.00;;;;7388282;19;20132;-80
2023/10/01 12:59:19;;;;;;;14.23;9.23;;;;;30.40;95011.00;;;;7385679;19;20228;-80
2023/10/01 13:01:54;;;;;;;15.52;8.80;;;;;31.10;95004.00;;;;7387609;19;20145;-79
2023/10/01 13:04:32;;;;;;;14.68;8.98;;;;;31.30;95008.00;;;;7388766;19;20156;-76
2023/10/01 13:07:13;;;;;;;14.15;8.75;;;;;30.30;95010.00;;;;6890364;19;9731751;-79
2023/10/01 13:09:59;;;;;;;12.02;8.30;;;;;31.60;94998.00;;;;7388232;19;20575;-80
2023/10/01 13:12:53;;;;;;;14.85;8.75;;;;;31.20;94999.00;;;;7391427;19;20564;-79
2023/10/01 13:15:30;;;;;;;13.43;8.60;;;;;31.20;94992.00;;;;7389844;19;20131;-80
2023/10/01 13:18:28;;;;;;;15.43;10.25;;;;;30.30;95008.00;;;;7388461;19;20148;-81
2023/10/01 13:21:09;;;;;;;12.85;8.63;;;;;30.10;95006.00;;;;7388324;19;20156;-79
2023/10/01 13:23:44;;;;;;;15.15;8.77;;;;;29.90;95011.00;;;;7387724;19;20170;-79
2023/10/01 13:26:31;;;;;;;14.70;9.00;;;;;29.40;95013.00;;;;7387294;19;20598;-80
2023/10/01 13:29:28;;;;;;;12.57;8.25;;;;;29.60;95008.00;;;;7391600;19;20129;-81
2023/10/01 13:32:03;;;;;;;13.40;8.98;;;;;29.50;95011.00;;;;7388202;19;20132;-81
2023/10/01 13:34:54;;;;;;;13.25;8.80;;;;;29.00;95019.00;;;;7386645;19;24277;-78
2023/10/01 13:40:29;;;;;;;13.57;8.68;;;;;28.50;95018.00;;;;7389769;19;20128;-77
2023/10/01 14:08:43;;;;;;;12.65;8.13;;;;;26.20;95004.00;;;;7385963;19;20140;-79